Time;durP1;ratioP1;P1;durP2;ratioP2;P2;SDS_P1;SDS_P2;PMS_P1;PMS_P2;Temp;Humidity;BMP_temperature;BMP_pressure;BME280_temperature;BME280_humidity;BME280_pressure;Samples;Min_cycle;Max_cycle;Signal;HPM_P1;HPM_P2
2022/03/06 03:47:48;;;;;;;63.67;32.22;;;1.90;82.60;;;;;;6312825;22;20338;-80
2022/03/06 03:50:14;;;;;;;63.20;32.35;;;1.90;82.60;;;;;;6263986;22;20022;-79
2022/03/06 03:52:40;;;;;;;64.63;34.35;;;1.90;82.60;;;;;;6289702;22;20012;-79
2022/03/06 03:55:07;;;;;;;68.20;33.05;;;1.90;82.50;;;;;;6264054;22;20011;-78
2022/03/06 03:57:33;;;;;;;63.45;31.23;;;1.90;82.50;;;;;;6264003;22;20364;-78
2022/03/06 03:59:59;;;;;;;66.78;32.88;;;1.90;82.50;;;;;;6263955;22;20011;-78
2022/03/06 04:02:25;;;;;;;61.85;30.92;;;1.90;82.30;;;;;;6289467;22;20207;-78
2022/03/06 04:04:51;;;;;;;65.68;33.35;;;1.90;82.10;;;;;;6289958;22;20078;-79
2022/03/06 04:07:17;;;;;;;57.28;31.15;;;1.90;82.20;;;;;;6263970;22;20003;-79
2022/03/06 04:09:42;;;;;;;65.47;31.67;;;1.90;82.00;;;;;;6289424;22;20007;-79
2022/03/06 04:12:09;;;;;;;59.85;31.52;;;1.90;82.20;;;;;;6264316;22;20059;-79
2022/03/06 04:14:34;;;;;;;66.20;33.20;;;1.90;82.30;;;;;;6264049;22;20090;-78
2022/03/06 04:17:00;;;;;;;60.40;31.75;;;1.80;82.20;;;;;;6263878;22;19995;-78
2022/03/06 04:19:26;;;;;;;65.55;31.75;;;1.90;82.00;;;;;;6264124;22;20014;-78
2022/03/06 04:21:53;;;;;;;57.35;30.80;;;1.80;81.80;;;;;;6264942;22;20034;-79
2022/03/06 04:24:18;;;;;;;64.15;28.77;;;1.90;81.70;;;;;;6240499;22;20207;-78
2022/03/06 04:26:44;;;;;;;55.65;28.30;;;1.80;81.30;;;;;;6240451;22;20008;-78
2022/03/06 04:29:10;;;;;;;60.30;29.85;;;1.90;81.00;;;;;;6266095;22;20059;-79
2022/03/06 04:31:36;;;;;;;51.67;26.87;;;1.90;81.30;;;;;;6291399;22;20003;-78
2022/03/06 04:34:03;;;;;;;58.60;30.77;;;1.90;80.30;;;;;;6265543;22;20057;-77
2022/03/06 04:36:29;;;;;;;61.53;29.48;;;1.90;80.00;;;;;;6265557;22;20011;-78
2022/03/06 04:38:55;;;;;;;52.35;27.60;;;1.90;79.90;;;;;;6290796;22;20011;-78
2022/03/06 04:41:20;;;;;;;56.55;29.40;;;2.00;79.60;;;;;;6265847;22;20060;-79
2022/03/06 04:43:46;;;;;;;54.10;27.80;;;2.00;79.20;;;;;;6265378;22;20027;-79
2022/03/06 04:46:12;;;;;;;55.67;26.05;;;2.00;78.60;;;;;;6255345;22;20019;-78
2022/03/06 04:48:38;;;;;;;58.63;28.20;;;2.00;78.50;;;;;;6255329;22;20008;-78
2022/03/06 04:51:04;;;;;;;52.97;26.15;;;2.00;78.50;;;;;;6255846;22;20035;-77
2022/03/06 04:53:31;;;;;;;54.47;28.13;;;2.00;78.30;;;;;;6229748;23;20028;-78
2022/03/06 04:55:57;;;;;;;;;;;2.00;78.00;;;;;;6230676;23;20016;-78
2022/03/06 04:58:22;;;;;;;54.23;26.60;;;2.00;77.90;;;;;;6204622;23;19903;-78
2022/03/06 05:00:48;;;;;;;49.88;27.05;;;2.00;77.90;;;;;;6230009;23;20004;-78
2022/03/06 05:03:15;;;;;;;51.28;26.98;;;2.00;77.80;;;;;;6229789;23;20334;-78
2022/03/06 05:05:40;;;;;;;50.05;26.48;;;2.00;77.70;;;;;;6255037;23;20004;-78
2022/03/06 05:08:06;;;;;;;51.20;26.48;;;2.00;77.70;;;;;;6229900;23;20018;-78
2022/03/06 05:10:32;;;;;;;51.78;25.85;;;1.90;77.50;;;;;;6229665;23;20011;-79
2022/03/06 05:12:58;;;;;;;49.17;27.13;;;2.00;77.60;;;;;;6254901;23;20076;-78
2022/03/06 05:15:24;;;;;;;60.90;29.38;;;1.90;77.50;;;;;;6229833;23;20634;-78
2022/03/06 05:17:49;;;;;;;50.70;26.02;;;2.00;77.50;;;;;;6229661;23;20019;-78
2022/03/06 05:20:16;;;;;;;55.33;28.40;;;1.90;77.50;;;;;;6255009;23;20000;-77
2022/03/06 05:22:42;;;;;;;47.43;26.80;;;1.90;77.40;;;;;;6229653;23;20012;-77
2022/03/06 05:25:09;;;;;;;56.23;29.00;;;1.90;77.40;;;;;;6254709;23;20028;-77
2022/03/06 05:27:35;;;;;;;;;;;1.90;77.50;;;;;;6230297;22;20318;-78
2022/03/06 05:30:00;;;;;;;51.40;26.80;;;1.90;77.70;;;;;;6254740;23;19904;-78
2022/03/06 05:32:26;;;;;;;56.67;26.92;;;1.90;77.70;;;;;;6229613;22;20016;-78
2022/03/06 05:34:52;;;;;;;48.90;25.63;;;1.90;77.60;;;;;;6254622;23;20008;-78
2022/03/06 05:37:18;;;;;;;48.25;26.73;;;1.90;77.60;;;;;;6229149;23;20036;-77
2022/03/06 05:39:44;;;;;;;50.67;26.75;;;1.90;77.50;;;;;;6254568;23;20023;-78
2022/03/06 05:42:09;;;;;;;53.80;26.75;;;1.90;77.30;;;;;;6280278;22;20047;-78
2022/03/06 05:44:36;;;;;;;56.00;27.75;;;2.00;77.20;;;;;;6229489;23;20052;-78
2022/03/06 05:47:02;;;;;;;50.73;26.60;;;2.00;77.00;;;;;;6245037;22;20016;-78
2022/03/06 05:49:27;;;;;;;54.38;27.08;;;2.10;77.00;;;;;;6229131;23;20054;-79
2022/03/06 05:51:53;;;;;;;46.00;26.75;;;2.10;76.80;;;;;;6254700;23;20020;-78
2022/03/06 05:54:19;;;;;;;51.33;25.10;;;2.20;76.60;;;;;;6280027;22;20008;-78
2022/03/06 05:56:45;;;;;;;50.10;25.67;;;2.30;76.40;;;;;;6204201;23;20020;-79
2022/03/06 05:59:10;;;;;;;50.88;26.15;;;2.30;75.80;;;;;;6204199;23;20220;-78
2022/03/06 06:01:38;;;;;;;50.40;25.60;;;2.40;75.80;;;;;;6254188;23;20304;-79
2022/03/06 06:04:04;;;;;;;58.80;27.88;;;2.50;75.60;;;;;;6254796;22;20042;-78
2022/03/06 06:06:30;;;;;;;49.25;25.25;;;2.60;75.50;;;;;;6254557;22;20303;-79
2022/03/06 06:08:59;;;;;;;48.47;26.33;;;2.70;75.10;;;;;;6253990;23;20020;-79
2022/03/06 06:11:25;;;;;;;46.60;24.52;;;2.70;74.40;;;;;;6279773;22;20304;-79
2022/03/06 06:13:51;;;;;;;48.70;24.67;;;2.70;74.00;;;;;;6204088;23;20058;-78
2022/03/06 06:16:17;;;;;;;50.45;26.98;;;2.70;74.10;;;;;;6279839;22;20057;-78
2022/03/06 06:18:42;;;;;;;49.45;26.65;;;2.70;74.10;;;;;;6204033;23;20397;-79
2022/03/06 06:21:10;;;;;;;47.92;24.65;;;2.70;74.00;;;;;;6204288;23;20038;-78
2022/03/06 06:23:36;;;;;;;52.50;26.98;;;2.80;74.20;;;;;;6254288;23;20008;-78
2022/03/06 06:26:02;;;;;;;51.13;27.13;;;2.70;73.80;;;;;;6229171;23;20255;-78
2022/03/06 06:28:28;;;;;;;53.58;26.55;;;2.70;73.90;;;;;;6279798;22;20000;-80
2022/03/06 06:30:54;;;;;;;53.50;28.65;;;2.70;74.00;;;;;;6279731;22;20012;-78
2022/03/06 06:33:27;;;;;;;50.70;27.92;;;2.80;74.10;;;;;;6228967;22;20012;-78
2022/03/06 06:35:53;;;;;;;62.40;28.00;;;2.80;74.00;;;;;;6204061;23;20019;-78
2022/03/06 06:38:20;;;;;;;55.88;27.15;;;2.80;74.00;;;;;;6279838;22;19995;-78
2022/03/06 06:40:51;;;;;;;47.03;26.17;;;2.90;74.10;;;;;;6255526;23;20010;-78
2022/03/06 06:43:18;;;;;;;49.80;26.88;;;2.90;74.00;;;;;;6254298;22;20012;-78
2022/03/06 06:45:44;;;;;;;52.80;27.70;;;3.00;73.80;;;;;;6258008;22;20008;-79
2022/03/06 06:48:10;;;;;;;54.27;28.17;;;3.00;73.70;;;;;;6283887;22;20049;-78
2022/03/06 06:50:36;;;;;;;51.15;28.52;;;3.00;73.70;;;;;;6258680;22;20003;-78
2022/03/06 06:53:02;;;;;;;53.78;28.40;;;3.10;73.40;;;;;;6232498;22;20043;-78
2022/03/06 06:55:28;;;;;;;53.65;27.88;;;3.10;73.30;;;;;;6258010;22;20180;-78
2022/03/06 06:57:54;;;;;;;60.35;29.48;;;3.00;73.10;;;;;;6258595;22;20030;-80
2022/03/06 07:00:20;;;;;;;52.80;28.25;;;3.10;73.30;;;;;;6257639;22;20016;-78
2022/03/06 07:02:46;;;;;;;58.75;29.70;;;3.10;73.30;;;;;;6257639;22;20275;-78
2022/03/06 07:05:12;;;;;;;59.80;28.90;;;3.10;72.60;;;;;;6257350;22;20014;-78
2022/03/06 07:07:38;;;;;;;53.70;28.57;;;3.20;73.00;;;;;;6283126;22;20080;-78
2022/03/06 07:10:05;;;;;;;55.65;28.55;;;3.20;72.80;;;;;;6220624;23;20008;-78
2022/03/06 07:12:31;;;;;;;59.22;30.85;;;3.30;72.60;;;;;;6195885;23;20078;-78
2022/03/06 07:14:57;;;;;;;57.78;30.13;;;3.30;72.10;;;;;;6220862;23;20052;-78
2022/03/06 07:17:23;;;;;;;56.83;30.47;;;3.40;71.90;;;;;;6195737;23;20012;-77
2022/03/06 07:19:49;;;;;;;57.15;30.10;;;3.40;71.80;;;;;;6195722;23;20015;-77
2022/03/06 07:22:15;;;;;;;58.75;30.33;;;3.40;71.40;;;;;;6220563;23;20075;-77
2022/03/06 07:24:41;;;;;;;59.80;33.07;;;3.50;71.50;;;;;;6195686;23;20308;-78
2022/03/06 07:27:07;;;;;;;60.70;30.75;;;3.60;71.30;;;;;;6220859;23;20247;-78
2022/03/06 07:29:32;;;;;;;60.80;31.98;;;3.70;70.80;;;;;;6220712;23;20020;-79
2022/03/06 07:31:58;;;;;;;64.60;31.50;;;3.90;70.90;;;;;;6220829;23;20071;-78
2022/03/06 07:34:27;;;;;;;57.13;30.50;;;4.00;70.30;;;;;;6195450;23;20343;-78
2022/03/06 07:36:53;;;;;;;60.40;30.85;;;4.00;69.10;;;;;;6220906;23;20062;-78
2022/03/06 07:39:19;;;;;;;47.75;25.10;;;4.20;69.70;;;;;;6195814;23;20020;-78
2022/03/06 07:41:44;;;;;;;60.97;29.52;;;4.40;66.00;;;;;;6244982;22;20007;-78
2022/03/06 07:44:10;;;;;;;55.05;28.00;;;4.60;66.80;;;;;;6257342;22;20035;-78
2022/03/06 07:46:36;;;;;;;51.10;29.10;;;4.70;65.00;;;;;;6256743;22;20019;-77
2022/03/06 07:49:02;;;;;;;57.03;30.08;;;4.70;64.50;;;;;;6257186;22;20012;-78
2022/03/06 07:51:27;;;;;;;52.38;28.98;;;4.80;64.90;;;;;;6231878;22;20030;-78
2022/03/06 07:53:53;;;;;;;52.70;27.33;;;5.00;65.00;;;;;;6257225;22;20012;-78
2022/03/06 07:56:19;;;;;;;45.67;23.60;;;5.10;64.70;;;;;;6257975;22;20023;-77
2022/03/06 07:58:45;;;;;;;49.42;26.17;;;5.30;62.60;;;;;;6259191;22;20062;-78
2022/03/06 08:01:10;;;;;;;55.22;27.20;;;5.40;62.60;;;;;;6259180;22;20034;-78
2022/03/06 08:03:36;;;;;;;52.38;27.88;;;5.50;62.70;;;;;;6259321;22;20231;-77
2022/03/06 08:06:02;;;;;;;52.10;28.10;;;5.50;62.30;;;;;;6233946;22;20007;-79
2022/03/06 08:08:28;;;;;;;59.35;29.50;;;5.40;61.80;;;;;;6259178;22;20315;-79
2022/03/06 08:10:53;;;;;;;57.28;28.42;;;5.40;63.10;;;;;;6258908;22;20011;-79
2022/03/06 08:13:19;;;;;;;49.47;26.55;;;5.30;60.70;;;;;;6234101;22;20039;-77
2022/03/06 08:15:45;;;;;;;50.58;25.77;;;5.20;61.80;;;;;;6259369;22;20107;-77
2022/03/06 08:18:11;;;;;;;52.38;26.33;;;5.20;62.10;;;;;;6234444;22;20042;-77
2022/03/06 08:20:37;;;;;;;49.03;26.48;;;5.20;61.60;;;;;;6258793;22;20018;-77
2022/03/06 08:23:03;;;;;;;53.42;29.50;;;5.20;61.90;;;;;;6286158;22;20004;-78
2022/03/06 08:25:28;;;;;;;50.70;28.38;;;5.30;62.60;;;;;;6233963;22;20008;-78
2022/03/06 08:27:54;;;;;;;53.38;28.20;;;5.30;61.80;;;;;;6285780;22;20008;-77
2022/03/06 08:30:20;;;;;;;53.78;28.35;;;5.20;61.30;;;;;;6259117;22;20314;-78
2022/03/06 08:32:46;;;;;;;59.03;29.15;;;5.20;62.30;;;;;;6233462;22;20020;-76
2022/03/06 08:35:12;;;;;;;55.30;27.83;;;5.50;62.50;;;;;;6258456;22;20479;-77
2022/03/06 08:37:38;;;;;;;53.50;28.58;;;5.50;60.70;;;;;;6258569;22;20380;-77
2022/03/06 08:40:05;;;;;;;50.42;26.52;;;5.50;61.00;;;;;;6258960;22;20004;-78
2022/03/06 08:42:31;;;;;;;48.25;27.70;;;5.60;61.80;;;;;;6258500;22;20016;-79
2022/03/06 08:44:57;;;;;;;55.40;26.85;;;5.70;61.20;;;;;;6258784;22;20007;-77
2022/03/06 08:47:23;;;;;;;54.25;26.60;;;5.80;59.70;;;;;;6258558;22;20215;-77
2022/03/06 08:49:48;;;;;;;45.20;25.27;;;5.80;60.10;;;;;;6233181;22;20229;-77
2022/03/06 08:52:14;;;;;;;49.45;26.23;;;5.90;59.80;;;;;;6234147;22;20195;-78
2022/03/06 08:54:40;;;;;;;54.65;26.60;;;6.00;58.20;;;;;;6259384;22;20004;-80
2022/03/06 08:57:06;;;;;;;43.78;24.73;;;6.00;58.70;;;;;;6233820;22;20004;-79
2022/03/06 08:59:34;;;;;;;46.13;23.92;;;6.10;58.70;;;;;;6259577;22;20015;-78
2022/03/06 09:02:00;;;;;;;44.03;23.67;;;6.20;57.40;;;;;;6234295;22;20291;-78
2022/03/06 09:04:27;;;;;;;35.17;20.35;;;6.40;57.70;;;;;;6259514;22;20007;-77
2022/03/06 09:06:53;;;;;;;32.35;18.23;;;6.50;55.60;;;;;;6259501;22;20307;-78
2022/03/06 09:09:20;;;;;;;30.60;16.67;;;6.40;53.70;;;;;;6259789;22;20075;-78
2022/03/06 09:11:46;;;;;;;28.15;14.82;;;6.50;52.70;;;;;;6234411;22;20019;-78
2022/03/06 09:14:11;;;;;;;27.45;16.67;;;6.50;52.10;;;;;;6234209;22;20008;-78
2022/03/06 09:16:37;;;;;;;30.92;16.05;;;6.60;52.30;;;;;;6233627;22;20357;-79
2022/03/06 09:19:03;;;;;;;32.22;17.02;;;6.70;51.80;;;;;;6258982;22;20012;-78
2022/03/06 09:21:29;;;;;;;35.70;18.23;;;6.80;51.30;;;;;;6234211;22;20014;-78
2022/03/06 09:23:55;;;;;;;31.35;18.67;;;6.90;52.60;;;;;;6234301;22;20059;-78
2022/03/06 09:26:21;;;;;;;30.65;17.27;;;6.90;51.50;;;;;;6286337;22;20000;-78
2022/03/06 09:28:47;;;;;;;39.60;18.73;;;6.90;50.40;;;;;;6285005;22;20367;-78
2022/03/06 09:31:13;;;;;;;38.03;19.75;;;7.00;51.00;;;;;;6234164;22;20220;-78
2022/03/06 09:33:39;;;;;;;31.05;17.55;;;7.00;51.10;;;;;;6259661;22;20018;-78
2022/03/06 09:36:05;;;;;;;36.47;20.00;;;7.00;50.80;;;;;;6234503;22;20008;-78
2022/03/06 09:38:31;;;;;;;37.42;20.40;;;6.80;50.50;;;;;;6259404;22;20203;-79
2022/03/06 09:41:01;;;;;;;34.85;20.23;;;6.60;51.30;;;;;;6258376;22;20062;-80
2022/03/06 09:43:29;;;;;;;31.48;18.25;;;6.30;52.00;;;;;;6258488;22;20016;-78
2022/03/06 09:46:01;;;;;;;;;;;6.40;52.40;;;;;;6258483;22;20306;-78
2022/03/06 09:48:29;;;;;;;33.30;18.50;;;6.60;51.40;;;;;;6285247;22;19906;-78
2022/03/06 09:50:56;;;;;;;31.92;18.33;;;6.60;50.90;;;;;;6259491;22;20315;-78
2022/03/06 09:53:22;;;;;;;36.15;19.20;;;6.80;50.30;;;;;;6258561;22;20034;-78
2022/03/06 09:55:49;;;;;;;38.22;17.70;;;7.10;51.70;;;;;;6284280;22;20008;-78
2022/03/06 09:58:14;;;;;;;29.88;18.75;;;7.60;51.20;;;;;;6233253;22;20011;-78
2022/03/06 10:00:41;;;;;;;32.22;17.85;;;7.70;49.00;;;;;;6259210;22;20075;-78
2022/03/06 10:03:07;;;;;;;36.27;20.23;;;7.80;48.90;;;;;;6258332;22;20031;-78
2022/03/06 10:05:39;;;;;;;30.00;18.20;;;7.80;49.60;;;;;;6259083;22;20003;-78
2022/03/06 10:08:24;;;;;;;37.97;20.42;;;7.60;48.40;;;;;;6284498;22;20318;-78
2022/03/06 10:10:53;;;;;;;36.88;21.20;;;7.10;49.20;;;;;;6285436;22;20007;-78
2022/03/06 10:13:22;;;;;;;38.72;20.55;;;6.50;50.60;;;;;;6284264;22;20221;-78
2022/03/06 10:16:06;;;;;;;33.28;19.65;;;6.30;51.80;;;;;;6265044;22;20007;-78
2022/03/06 10:18:34;;;;;;;38.55;20.02;;;6.30;51.50;;;;;;6288245;22;20011;-77
2022/03/06 10:21:27;;;;;;;27.88;16.85;;;6.60;52.10;;;;;;6285303;22;20010;-78
2022/03/06 10:24:00;;;;;;;37.72;19.50;;;7.20;51.70;;;;;;6224067;23;20012;-78
2022/03/06 10:26:28;;;;;;;37.25;18.23;;;7.60;49.40;;;;;;6199293;23;20016;-78
2022/03/06 10:29:00;;;;;;;33.30;18.88;;;7.80;49.00;;;;;;6197837;23;20009;-78
2022/03/06 10:31:29;;;;;;;29.48;18.27;;;7.70;47.80;;;;;;6223361;23;20071;-77
2022/03/06 10:34:04;;;;;;;31.85;17.85;;;7.60;48.90;;;;;;6221373;23;20059;-78
2022/03/06 10:36:42;;;;;;;37.17;18.95;;;7.50;48.60;;;;;;6221426;23;20200;-79
2022/03/06 10:39:19;;;;;;;35.55;18.80;;;7.20;48.40;;;;;;6222776;23;20009;-79
2022/03/06 10:41:51;;;;;;;38.10;19.45;;;7.00;49.30;;;;;;6198502;23;20004;-77
2022/03/06 10:44:19;;;;;;;42.30;19.85;;;7.00;50.40;;;;;;6218651;23;20016;-78
2022/03/06 10:47:04;;;;;;;35.78;18.42;;;7.20;49.90;;;;;;6196380;23;20051;-78
2022/03/06 10:49:32;;;;;;;31.33;18.27;;;7.30;48.10;;;;;;6222335;23;20073;-79
2022/03/06 10:52:13;;;;;;;33.42;18.73;;;7.20;49.10;;;;;;6197052;23;20331;-79
2022/03/06 10:55:00;;;;;;;32.15;18.60;;;7.20;48.50;;;;;;6222525;23;20046;-79
2022/03/06 10:57:26;;;;;;;30.23;17.35;;;7.50;48.00;;;;;;6197082;23;20015;-79
2022/03/06 10:59:52;;;;;;;28.20;17.35;;;7.60;48.10;;;;;;6200475;23;20219;-78
2022/03/06 11:02:18;;;;;;;32.00;17.80;;;7.60;46.50;;;;;;6228002;23;20361;-78
2022/03/06 11:04:46;;;;;;;29.63;16.58;;;7.30;46.30;;;;;;6203193;23;20008;-79
2022/03/06 11:07:12;;;;;;;26.70;16.15;;;7.20;47.80;;;;;;6253553;22;20031;-78
2022/03/06 11:09:39;;;;;;;30.80;16.95;;;7.20;46.90;;;;;;6253517;23;20338;-80
2022/03/06 11:12:06;;;;;;;28.85;17.42;;;7.20;48.30;;;;;;6253486;23;20203;-78
2022/03/06 11:14:32;;;;;;;26.40;17.10;;;7.40;47.40;;;;;;6253291;23;20195;-78
2022/03/06 11:16:59;;;;;;;33.10;16.15;;;7.50;47.70;;;;;;6203148;23;20773;-79
2022/03/06 11:19:26;;;;;;;27.17;17.23;;;7.30;46.90;;;;;;6228248;23;20072;-79
2022/03/06 11:22:10;;;;;;;31.33;18.05;;;7.20;48.20;;;;;;6253807;23;20020;-80
2022/03/06 11:24:37;;;;;;;32.80;18.52;;;7.30;47.30;;;;;;6279018;22;20023;-79
2022/03/06 11:27:41;;;;;;;35.03;17.10;;;7.20;48.30;;;;;;6253557;23;20064;-79
2022/03/06 11:30:08;;;;;;;35.72;18.40;;;7.20;48.00;;;;;;6253493;23;20067;-78
2022/03/06 11:32:36;;;;;;;34.05;18.65;;;7.10;48.00;;;;;;6229559;23;20015;-79
2022/03/06 11:35:09;;;;;;;29.00;16.98;;;7.00;48.50;;;;;;6255099;23;20207;-79
2022/03/06 11:37:55;;;;;;;30.92;18.45;;;7.10;47.90;;;;;;6254911;23;20023;-79
2022/03/06 11:40:45;;;;;;;33.42;18.83;;;6.90;47.30;;;;;;6255075;23;20004;-78
2022/03/06 11:43:51;;;;;;;31.23;17.20;;;6.90;46.90;;;;;;6229666;23;20008;-78
2022/03/06 11:46:18;;;;;;;;;;;6.80;47.40;;;;;;6254473;22;20046;-78
2022/03/06 11:48:44;;;;;;;30.55;15.93;;;6.70;47.10;;;;;;6254981;23;19904;-80
2022/03/06 11:51:19;;;;;;;26.75;15.38;;;6.70;46.80;;;;;;6229780;23;20227;-79
2022/03/06 11:53:58;;;;;;;31.13;16.92;;;6.60;47.00;;;;;;6254720;23;20050;-79
2022/03/06 11:56:35;;;;;;;25.33;15.63;;;6.60;47.40;;;;;;6256248;22;20012;-79
2022/03/06 11:59:07;;;;;;;26.45;15.90;;;6.70;46.90;;;;;;6254805;23;20014;-79
2022/03/06 12:01:37;;;;;;;24.52;14.40;;;6.70;47.10;;;;;;6255255;23;20314;-79
2022/03/06 12:04:13;;;;;;;25.48;15.93;;;6.90;46.90;;;;;;6254510;23;20037;-79
2022/03/06 12:06:42;;;;;;;22.77;15.15;;;6.90;46.40;;;;;;6254697;23;20059;-79
2022/03/06 12:09:27;;;;;;;23.35;14.68;;;6.90;46.60;;;;;;6254761;23;19996;-79
2022/03/06 12:11:59;;;;;;;26.60;16.08;;;7.00;46.80;;;;;;6255301;23;20015;-79
2022/03/06 12:14:33;;;;;;;27.00;15.10;;;7.00;46.70;;;;;;6254661;23;20054;-79
2022/03/06 12:17:02;;;;;;;24.77;15.43;;;7.10;46.50;;;;;;6254583;23;20067;-79
2022/03/06 12:19:32;;;;;;;23.75;14.48;;;7.20;46.70;;;;;;6255949;22;20054;-80
2022/03/06 12:22:12;;;;;;;27.02;16.65;;;7.30;46.90;;;;;;6280678;22;20000;-79
2022/03/06 12:24:39;;;;;;;27.27;16.58;;;7.50;46.40;;;;;;6229772;23;20004;-79
2022/03/06 12:27:23;;;;;;;29.67;16.10;;;7.70;46.80;;;;;;6255806;23;20338;-79
2022/03/06 12:29:49;;;;;;;25.13;15.18;;;7.80;46.20;;;;;;6254114;23;20015;-79
2022/03/06 12:32:31;;;;;;;23.10;14.52;;;8.20;45.70;;;;;;6254145;23;20379;-79
2022/03/06 12:35:05;;;;;;;21.85;13.70;;;8.60;45.00;;;;;;6254454;23;20012;-79
2022/03/06 12:37:35;;;;;;;24.45;13.75;;;8.60;42.20;;;;;;6254014;23;20035;-80
2022/03/06 12:40:04;;;;;;;23.42;14.85;;;8.20;42.60;;;;;;6254435;23;20016;-79
2022/03/06 12:42:32;;;;;;;25.75;16.58;;;8.20;44.50;;;;;;6253859;23;20185;-78
2022/03/06 12:45:08;;;;;;;30.13;17.17;;;8.00;43.70;;;;;;6229436;22;20295;-78
2022/03/06 12:47:39;;;;;;;31.00;16.05;;;7.90;45.10;;;;;;6251859;22;20027;-78
2022/03/06 12:50:09;;;;;;;23.83;15.25;;;7.60;44.90;;;;;;6250117;23;20004;-79
2022/03/06 12:52:35;;;;;;;24.58;14.88;;;7.60;45.30;;;;;;6253267;23;20019;-80
2022/03/06 12:55:06;;;;;;;23.98;13.93;;;7.60;44.90;;;;;;6203166;23;20640;-79
2022/03/06 12:57:40;;;;;;;22.67;14.30;;;7.40;44.50;;;;;;6253127;23;20011;-78
2022/03/06 13:00:13;;;;;;;23.85;15.30;;;7.40;45.90;;;;;;6253312;23;20366;-79
2022/03/06 13:02:39;;;;;;;23.58;14.88;;;7.50;45.50;;;;;;6230454;23;20038;-78
2022/03/06 13:05:06;;;;;;;22.33;14.52;;;7.50;45.30;;;;;;6230546;23;20015;-78
2022/03/06 13:07:35;;;;;;;24.92;15.43;;;7.50;45.30;;;;;;6229339;23;20492;-79
2022/03/06 13:10:04;;;;;;;27.83;15.00;;;7.50;44.60;;;;;;6204769;23;20008;-78
2022/03/06 13:12:39;;;;;;;24.70;16.05;;;7.60;44.20;;;;;;6254199;23;20004;-79
2022/03/06 13:15:17;;;;;;;25.50;14.88;;;7.70;45.10;;;;;;6252739;23;20051;-78
2022/03/06 13:17:54;;;;;;;22.58;14.18;;;8.10;44.50;;;;;;6202553;23;20063;-78
2022/03/06 13:20:20;;;;;;;22.02;14.35;;;8.10;42.90;;;;;;6229931;23;20008;-79
2022/03/06 13:22:46;;;;;;;25.98;15.93;;;8.20;44.60;;;;;;6268643;22;20323;-79
2022/03/06 13:25:11;;;;;;;26.45;17.02;;;8.10;43.80;;;;;;6209842;22;20012;-79
2022/03/06 13:27:40;;;;;;;27.45;16.60;;;7.90;44.70;;;;;;6230163;22;19996;-78
2022/03/06 13:30:07;;;;;;;28.38;18.25;;;7.70;45.00;;;;;;6234942;22;20249;-78
2022/03/06 13:32:42;;;;;;;37.83;18.55;;;7.40;45.70;;;;;;6259941;22;20003;-78
2022/03/06 13:35:27;;;;;;;29.08;17.77;;;7.30;46.10;;;;;;6260014;22;20635;-78
2022/03/06 13:37:59;;;;;;;37.25;19.77;;;7.10;46.80;;;;;;6234933;22;20060;-78
2022/03/06 13:40:28;;;;;;;30.75;19.08;;;7.00;47.10;;;;;;6259765;22;20167;-78
2022/03/06 13:42:55;;;;;;;32.42;19.17;;;6.90;47.50;;;;;;6259848;22;20195;-78
2022/03/06 13:45:21;;;;;;;31.92;19.88;;;6.90;47.50;;;;;;6209519;22;20007;-78
2022/03/06 13:47:49;;;;;;;32.83;19.25;;;6.80;47.80;;;;;;6234410;22;20228;-78
2022/03/06 13:50:35;;;;;;;36.55;21.17;;;6.80;47.90;;;;;;6259573;22;20012;-79
2022/03/06 13:53:03;;;;;;;32.10;19.77;;;6.70;48.20;;;;;;6234205;22;20007;-79
2022/03/06 13:55:31;;;;;;;32.70;20.00;;;6.60;48.30;;;;;;6233731;22;19995;-78
2022/03/06 13:58:03;;;;;;;34.15;20.50;;;6.60;48.20;;;;;;6287069;22;20008;-79
2022/03/06 14:00:35;;;;;;;31.95;19.40;;;6.50;48.30;;;;;;6234021;22;20007;-78
2022/03/06 14:03:02;;;;;;;34.38;19.13;;;6.50;48.70;;;;;;6259343;22;20000;-79
2022/03/06 14:05:29;;;;;;;;;;;6.50;48.70;;;;;;6260116;22;20045;-79
2022/03/06 14:07:55;;;;;;;35.15;20.17;;;6.60;48.90;;;;;;6234534;22;19907;-79
2022/03/06 14:10:38;;;;;;;35.03;20.33;;;6.70;48.50;;;;;;6233858;22;20250;-78
2022/03/06 14:13:25;;;;;;;31.60;18.95;;;6.70;48.40;;;;;;6234147;22;20059;-79
2022/03/06 14:15:58;;;;;;;31.10;18.77;;;6.70;48.00;;;;;;6234165;22;20057;-80
2022/03/06 14:18:35;;;;;;;31.42;19.63;;;6.70;47.90;;;;;;6261345;22;20019;-79
2022/03/06 14:21:19;;;;;;;35.92;20.67;;;6.60;48.00;;;;;;6234325;22;20007;-79
2022/03/06 14:23:47;;;;;;;35.13;20.33;;;6.50;48.50;;;;;;6255471;22;20070;-79
2022/03/06 14:26:14;;;;;;;38.95;21.35;;;6.50;48.70;;;;;;6234884;22;20003;-79
2022/03/06 14:28:53;;;;;;;35.95;21.23;;;6.40;48.60;;;;;;6234143;22;20331;-79
2022/03/06 14:31:20;;;;;;;36.40;20.90;;;6.40;48.50;;;;;;6259496;22;20351;-79
2022/03/06 14:33:46;;;;;;;38.85;20.70;;;6.30;49.00;;;;;;6234010;22;20318;-79
2022/03/06 14:36:12;;;;;;;37.22;21.25;;;6.40;49.10;;;;;;6286538;22;20003;-79
2022/03/06 14:38:40;;;;;;;40.63;22.05;;;6.40;49.20;;;;;;6259831;22;20018;-80
2022/03/06 14:41:06;;;;;;;42.95;22.48;;;6.30;49.70;;;;;;6234296;22;20007;-79
2022/03/06 14:43:33;;;;;;;38.95;23.00;;;6.20;50.60;;;;;;6233699;22;20230;-79
2022/03/06 14:46:03;;;;;;;;;;;6.10;50.20;;;;;;6231259;22;20003;-79
2022/03/06 14:48:30;;;;;;;45.78;23.27;;;6.10;50.80;;;;;;6259491;22;19959;-79
2022/03/06 14:50:56;;;;;;;38.83;23.70;;;6.00;50.90;;;;;;6208898;22;20000;-79
2022/03/06 14:53:22;;;;;;;39.50;23.85;;;6.00;51.20;;;;;;6234513;22;20008;-79
2022/03/06 14:55:49;;;;;;;39.30;22.20;;;5.90;51.20;;;;;;6234118;22;20023;-78
2022/03/06 14:58:15;;;;;;;;;;;5.80;51.20;;;;;;6235162;22;20014;-79
2022/03/06 15:00:41;;;;;;;37.80;21.23;;;5.80;50.80;;;;;;6209153;22;19903;-79
2022/03/06 15:03:07;;;;;;;46.30;22.33;;;5.60;50.80;;;;;;6208872;22;20008;-79
2022/03/06 15:05:33;;;;;;;38.20;22.83;;;5.60;51.30;;;;;;6183812;22;20014;-79
2022/03/06 15:07:59;;;;;;;38.80;22.55;;;5.60;51.50;;;;;;6233535;22;20203;-78
2022/03/06 15:10:25;;;;;;;44.58;22.52;;;5.60;51.60;;;;;;6234019;22;20304;-78
2022/03/06 15:12:50;;;;;;;40.42;23.10;;;5.60;51.60;;;;;;6209043;22;20342;-78
2022/03/06 15:15:16;;;;;;;39.22;24.20;;;5.60;51.80;;;;;;6208967;22;20066;-79
2022/03/06 15:17:42;;;;;;;39.58;23.45;;;5.50;51.70;;;;;;6233838;22;20311;-79
2022/03/06 15:20:09;;;;;;;39.83;21.98;;;5.50;51.70;;;;;;6234014;22;20015;-78
2022/03/06 15:22:35;;;;;;;46.83;24.75;;;5.50;52.00;;;;;;6232803;22;20019;-78
2022/03/06 15:25:03;;;;;;;41.78;23.98;;;5.50;52.40;;;;;;6184304;22;20023;-78
2022/03/06 15:27:29;;;;;;;46.38;24.15;;;5.50;52.40;;;;;;6233565;22;20089;-78
2022/03/06 15:29:55;;;;;;;44.70;25.47;;;5.50;52.70;;;;;;6259339;22;19999;-79
2022/03/06 15:32:21;;;;;;;43.90;25.02;;;5.60;52.70;;;;;;6259344;22;20059;-78
2022/03/06 15:34:47;;;;;;;44.90;25.75;;;5.50;52.90;;;;;;6209119;22;20030;-78
2022/03/06 15:37:16;;;;;;;46.22;25.13;;;5.40;52.60;;;;;;6233802;22;20032;-79
2022/03/06 15:39:44;;;;;;;46.28;25.48;;;5.40;52.70;;;;;;6229215;22;20058;-78
2022/03/06 15:42:10;;;;;;;48.70;26.05;;;5.30;52.70;;;;;;6234271;22;20298;-78
2022/03/06 15:44:36;;;;;;;44.70;26.70;;;5.30;53.00;;;;;;6258903;22;20017;-78
2022/03/06 15:47:04;;;;;;;45.28;26.75;;;5.30;53.20;;;;;;6258775;22;20049;-78
2022/03/06 15:49:30;;;;;;;45.30;25.23;;;5.20;53.00;;;;;;6232220;22;20014;-79
2022/03/06 15:51:56;;;;;;;47.25;25.88;;;5.20;53.10;;;;;;6233252;22;20202;-78
2022/03/06 15:54:22;;;;;;;42.53;23.67;;;5.20;53.20;;;;;;6233412;22;20258;-79
2022/03/06 15:56:48;;;;;;;41.35;23.05;;;5.20;53.40;;;;;;6208290;22;20039;-78
2022/03/06 15:59:14;;;;;;;39.30;21.98;;;5.10;53.30;;;;;;6207659;22;20263;-78
2022/03/06 16:01:44;;;;;;;40.37;22.20;;;5.00;53.30;;;;;;6233168;22;20184;-78
2022/03/06 16:04:09;;;;;;;41.50;23.98;;;5.00;53.80;;;;;;6258161;22;20000;-78
2022/03/06 16:06:36;;;;;;;45.30;22.88;;;5.00;53.80;;;;;;6232949;22;20046;-79
2022/03/06 16:09:02;;;;;;;37.55;22.05;;;4.90;54.20;;;;;;6232851;22;20310;-79
2022/03/06 16:11:28;;;;;;;36.20;21.50;;;4.90;53.80;;;;;;6233177;22;20030;-79
2022/03/06 16:13:54;;;;;;;40.17;22.33;;;4.80;54.00;;;;;;6233419;22;20012;-79
2022/03/06 16:16:20;;;;;;;38.30;21.15;;;4.80;53.90;;;;;;6233358;22;20045;-79
2022/03/06 16:18:46;;;;;;;37.97;21.92;;;4.70;53.80;;;;;;6234242;22;20295;-79
2022/03/06 16:21:13;;;;;;;37.72;21.88;;;4.70;54.00;;;;;;6235533;22;20014;-79
2022/03/06 16:23:40;;;;;;;36.97;20.73;;;4.70;53.90;;;;;;6260491;22;20010;-79
2022/03/06 16:26:10;;;;;;;36.33;21.38;;;4.70;53.80;;;;;;6236062;22;20004;-80
2022/03/06 16:28:36;;;;;;;37.63;21.48;;;4.70;53.50;;;;;;6236623;22;20012;-78
2022/03/06 16:31:03;;;;;;;38.45;21.00;;;4.60;53.70;;;;;;6261101;22;20049;-79